sensor_id;sensor_type;location;lat;lon;timestamp;temperature;humidity
7143;DHT22;3613;48.902;9.204;2024-02-21T00:01:26;18.20;99.90
7143;DHT22;3613;48.902;9.204;2024-02-21T00:03:54;18.20;99.90
7143;DHT22;3613;48.902;9.204;2024-02-21T00:06:20;18.20;99.90
7143;DHT22;3613;48.902;9.204;2024-02-21T00:08:48;18.20;99.90
7143;DHT22;3613;48.902;9.204;2024-02-21T00:11:13;18.20;99.90
7143;DHT22;3613;48.902;9.204;2024-02-21T00:13:41;18.20;99.90
7143;DHT22;3613;48.902;9.204;2024-02-21T00:16:07;18.20;99.90
7143;DHT22;3613;48.902;9.204;2024-02-21T00:18:35;18.20;99.90
7143;DHT22;3613;48.902;9.204;2024-02-21T00:21:00;18.20;99.90
7143;DHT22;3613;48.902;9.204;2024-02-21T00:23:30;18.20;99.90
7143;DHT22;3613;48.902;9.204;2024-02-21T00:25:56;18.20;99.90
7143;DHT22;3613;48.902;9.204;2024-02-21T00:28:21;18.20;99.90
7143;DHT22;3613;48.902;9.204;2024-02-21T00:30:49;18.20;99.90
7143;DHT22;3613;48.902;9.204;2024-02-21T00:33:16;18.20;99.90
7143;DHT22;3613;48.902;9.204;2024-02-21T00:35:44;18.20;99.90
7143;DHT22;3613;48.902;9.204;2024-02-21T00:38:12;18.30;99.90
7143;DHT22;3613;48.902;9.204;2024-02-21T00:40:38;18.20;99.90
7143;DHT22;3613;48.902;9.204;2024-02-21T00:43:04;18.20;99.90
7143;DHT22;3613;48.902;9.204;2024-02-21T00:45:32;18.20;99.90
7143;DHT22;3613;48.902;9.204;2024-02-21T00:47:57;18.20;99.90
7143;DHT22;3613;48.902;9.204;2024-02-21T00:50:25;18.20;99.90
7143;DHT22;3613;48.902;9.204;2024-02-21T00:52:51;18.20;99.90
7143;DHT22;3613;48.902;9.204;2024-02-21T00:55:19;18.10;99.90
7143;DHT22;3613;48.902;9.204;2024-02-21T00:57:44;18.00;99.90
7143;DHT22;3613;48.902;9.204;2024-02-21T01:00:10;18.10;99.90
7143;DHT22;3613;48.902;9.204;2024-02-21T01:02:38;18.10;99.90
7143;DHT22;3613;48.902;9.204;2024-02-21T01:05:04;18.10;99.90
7143;DHT22;3613;48.902;9.204;2024-02-21T01:07:35;18.10;99.90
7143;DHT22;3613;48.902;9.204;2024-02-21T01:10:03;18.00;99.90
7143;DHT22;3613;48.902;9.204;2024-02-21T01:12:28;18.10;99.90
7143;DHT22;3613;48.902;9.204;2024-02-21T01:14:54;18.10;99.90
7143;DHT22;3613;48.902;9.204;2024-02-21T01:17:19;18.10;99.90
7143;DHT22;3613;48.902;9.204;2024-02-21T01:19:46;18.10;99.90
7143;DHT22;3613;48.902;9.204;2024-02-21T01:22:17;18.10;99.90
7143;DHT22;3613;48.902;9.204;2024-02-21T01:24:43;18.10;99.90
7143;DHT22;3613;48.902;9.204;2024-02-21T01:27:11;18.10;99.90
7143;DHT22;3613;48.902;9.204;2024-02-21T01:29:37;18.10;99.90
7143;DHT22;3613;48.902;9.204;2024-02-21T01:32:02;18.10;99.90
7143;DHT22;3613;48.902;9.204;2024-02-21T01:34:28;18.10;99.90
7143;DHT22;3613;48.902;9.204;2024-02-21T01:36:53;18.10;99.90
7143;DHT22;3613;48.902;9.204;2024-02-21T01:39:24;18.10;99.90
7143;DHT22;3613;48.902;9.204;2024-02-21T01:41:49;18.10;99.90
7143;DHT22;3613;48.902;9.204;2024-02-21T01:44:15;18.10;99.90
7143;DHT22;3613;48.902;9.204;2024-02-21T01:46:41;18.10;99.90
7143;DHT22;3613;48.902;9.204;2024-02-21T01:49:07;18.10;99.90
7143;DHT22;3613;48.902;9.204;2024-02-21T01:51:37;18.10;99.90
7143;DHT22;3613;48.902;9.204;2024-02-21T01:54:04;18.10;99.90
7143;DHT22;3613;48.902;9.204;2024-02-21T01:56:29;18.00;99.90
7143;DHT22;3613;48.902;9.204;2024-02-21T01:58:58;18.00;99.90
7143;DHT22;3613;48.902;9.204;2024-02-21T02:01:25;18.10;99.90
7143;DHT22;3613;48.902;9.204;2024-02-21T02:03:51;18.00;99.90
7143;DHT22;3613;48.902;9.204;2024-02-21T02:06:20;18.00;99.90
7143;DHT22;3613;48.902;9.204;2024-02-21T02:08:48;18.00;99.90
7143;DHT22;3613;48.902;9.204;2024-02-21T02:11:16;18.00;99.90
7143;DHT22;3613;48.902;9.204;2024-02-21T02:13:42;18.00;99.90
7143;DHT22;3613;48.902;9.204;2024-02-21T02:16:10;18.00;99.90
7143;DHT22;3613;48.902;9.204;2024-02-21T02:18:36;18.00;99.90
7143;DHT22;3613;48.902;9.204;2024-02-21T02:21:04;18.00;99.90
7143;DHT22;3613;48.902;9.204;2024-02-21T02:26:11;18.00;99.90
7143;DHT22;3613;48.902;9.204;2024-02-21T02:28:36;18.00;99.90
7143;DHT22;3613;48.902;9.204;2024-02-21T02:31:02;18.00;99.90
7143;DHT22;3613;48.902;9.204;2024-02-21T02:33:28;18.00;99.90
7143;DHT22;3613;48.902;9.204;2024-02-21T02:35:53;18.00;99.90
7143;DHT22;3613;48.902;9.204;2024-02-21T02:38:19;18.00;99.90
7143;DHT22;3613;48.902;9.204;2024-02-21T02:40:47;18.00;99.90
7143;DHT22;3613;48.902;9.204;2024-02-21T02:43:13;18.00;99.90
7143;DHT22;3613;48.902;9.204;2024-02-21T02:45:39;18.00;99.90
7143;DHT22;3613;48.902;9.204;2024-02-21T02:48:05;18.00;99.90
7143;DHT22;3613;48.902;9.204;2024-02-21T02:50:30;17.90;99.90
7143;DHT22;3613;48.902;9.204;2024-02-21T02:52:56;18.00;99.90
7143;DHT22;3613;48.902;9.204;2024-02-21T02:55:22;18.00;99.90
7143;DHT22;3613;48.902;9.204;2024-02-21T02:57:48;18.00;99.90
7143;DHT22;3613;48.902;9.204;2024-02-21T03:00:16;18.00;99.90
7143;DHT22;3613;48.902;9.204;2024-02-21T03:02:43;18.00;99.90
7143;DHT22;3613;48.902;9.204;2024-02-21T03:05:18;18.00;99.90
7143;DHT22;3613;48.902;9.204;2024-02-21T03:07:47;18.00;99.90
7143;DHT22;3613;48.902;9.204;2024-02-21T03:10:13;18.00;99.90
7143;DHT22;3613;48.902;9.204;2024-02-21T03:12:42;18.00;99.90
7143;DHT22;3613;48.902;9.204;2024-02-21T03:15:08;17.90;99.90
7143;DHT22;3613;48.902;9.204;2024-02-21T03:17:38;18.00;99.90
7143;DHT22;3613;48.902;9.204;2024-02-21T03:20:05;18.00;99.90
7143;DHT22;3613;48.902;9.204;2024-02-21T03:22:34;17.90;99.90
7143;DHT22;3613;48.902;9.204;2024-02-21T03:25:04;18.00;99.90
7143;DHT22;3613;48.902;9.204;2024-02-21T03:27:32;17.90;99.90
7143;DHT22;3613;48.902;9.204;2024-02-21T03:29:58;17.90;99.90
7143;DHT22;3613;48.902;9.204;2024-02-21T03:32:26;17.90;99.90
7143;DHT22;3613;48.902;9.204;2024-02-21T03:34:53;17.90;99.90
7143;DHT22;3613;48.902;9.204;2024-02-21T03:37:19;17.90;99.90
7143;DHT22;3613;48.902;9.204;2024-02-21T03:39:45;17.90;99.90
7143;DHT22;3613;48.902;9.204;2024-02-21T03:42:13;17.90;99.90
7143;DHT22;3613;48.902;9.204;2024-02-21T03:44:38;17.90;99.90
7143;DHT22;3613;48.902;9.204;2024-02-21T03:47:04;17.90;99.90
7143;DHT22;3613;48.902;9.204;2024-02-21T03:49:30;17.90;99.90
7143;DHT22;3613;48.902;9.204;2024-02-21T03:51:55;17.80;99.90
7143;DHT22;3613;48.902;9.204;2024-02-21T03:54:21;17.90;99.90
7143;DHT22;3613;48.902;9.204;2024-02-21T03:56:47;17.90;99.90
7143;DHT22;3613;48.902;9.204;2024-02-21T03:59:18;17.80;99.90
7143;DHT22;3613;48.902;9.204;2024-02-21T04:01:43;17.80;99.90
7143;DHT22;3613;48.902;9.204;2024-02-21T04:04:10;17.90;99.90
7143;DHT22;3613;48.902;9.204;2024-02-21T04:06:35;17.90;99.90
7143;DHT22;3613;48.902;9.204;2024-02-21T04:09:05;17.80;99.90
7143;DHT22;3613;48.902;9.204;2024-02-21T04:11:31;17.90;99.90
7143;DHT22;3613;48.902;9.204;2024-02-21T04:13:58;17.80;99.90
7143;DHT22;3613;48.902;9.204;2024-02-21T04:16:24;17.80;99.90
7143;DHT22;3613;48.902;9.204;2024-02-21T04:18:49;17.80;99.90
7143;DHT22;3613;48.902;9.204;2024-02-21T04:21:17;17.80;99.90
7143;DHT22;3613;48.902;9.204;2024-02-21T04:23:45;17.90;99.90
7143;DHT22;3613;48.902;9.204;2024-02-21T04:26:13;17.80;99.90
7143;DHT22;3613;48.902;9.204;2024-02-21T04:28:39;17.80;99.90
7143;DHT22;3613;48.902;9.204;2024-02-21T04:31:07;17.90;99.90
7143;DHT22;3613;48.902;9.204;2024-02-21T04:33:35;17.80;99.90
7143;DHT22;3613;48.902;9.204;2024-02-21T04:36:00;17.80;99.90
7143;DHT22;3613;48.902;9.204;2024-02-21T04:38:30;17.80;99.90
7143;DHT22;3613;48.902;9.204;2024-02-21T04:40:56;17.80;99.90
7143;DHT22;3613;48.902;9.204;2024-02-21T04:43:24;17.80;99.90
7143;DHT22;3613;48.902;9.204;2024-02-21T04:45:50;17.80;99.90
7143;DHT22;3613;48.902;9.204;2024-02-21T04:48:16;17.80;99.90
7143;DHT22;3613;48.902;9.204;2024-02-21T04:50:41;17.80;99.90
7143;DHT22;3613;48.902;9.204;2024-02-21T04:53:09;17.80;99.90
7143;DHT22;3613;48.902;9.204;2024-02-21T04:55:37;17.80;99.90
7143;DHT22;3613;48.902;9.204;2024-02-21T04:58:06;17.80;99.90
7143;DHT22;3613;48.902;9.204;2024-02-21T05:00:34;17.80;99.90
7143;DHT22;3613;48.902;9.204;2024-02-21T05:03:02;17.80;99.90
7143;DHT22;3613;48.902;9.204;2024-02-21T05:05:28;17.80;99.90
7143;DHT22;3613;48.902;9.204;2024-02-21T05:07:53;17.70;99.90
7143;DHT22;3613;48.902;9.204;2024-02-21T05:10:21;17.70;99.90
7143;DHT22;3613;48.902;9.204;2024-02-21T05:12:47;17.70;99.90
7143;DHT22;3613;48.902;9.204;2024-02-21T05:15:12;17.70;99.90
7143;DHT22;3613;48.902;9.204;2024-02-21T05:17:38;17.60;99.90
7143;DHT22;3613;48.902;9.204;2024-02-21T05:20:04;17.70;99.90
7143;DHT22;3613;48.902;9.204;2024-02-21T05:22:29;18.20;99.90
7143;DHT22;3613;48.902;9.204;2024-02-21T05:24:59;17.80;99.90
7143;DHT22;3613;48.902;9.204;2024-02-21T05:27:25;17.60;99.90
7143;DHT22;3613;48.902;9.204;2024-02-21T05:29:50;17.70;99.90
7143;DHT22;3613;48.902;9.204;2024-02-21T05:32:16;17.70;99.90
7143;DHT22;3613;48.902;9.204;2024-02-21T05:34:42;17.60;99.90
7143;DHT22;3613;48.902;9.204;2024-02-21T05:37:12;17.60;99.90
7143;DHT22;3613;48.902;9.204;2024-02-21T05:39:40;17.60;99.90
7143;DHT22;3613;48.902;9.204;2024-02-21T05:42:06;17.60;99.90
7143;DHT22;3613;48.902;9.204;2024-02-21T05:44:34;17.60;99.90
7143;DHT22;3613;48.902;9.204;2024-02-21T05:47:02;17.60;99.90
7143;DHT22;3613;48.902;9.204;2024-02-21T05:49:28;17.70;99.90
7143;DHT22;3613;48.902;9.204;2024-02-21T05:51:56;17.60;99.90
7143;DHT22;3613;48.902;9.204;2024-02-21T05:54:23;17.60;99.90
7143;DHT22;3613;48.902;9.204;2024-02-21T05:56:49;17.60;99.90
7143;DHT22;3613;48.902;9.204;2024-02-21T05:59:14;17.70;99.90
7143;DHT22;3613;48.902;9.204;2024-02-21T06:01:45;17.60;99.90
7143;DHT22;3613;48.902;9.204;2024-02-21T06:04:10;17.60;99.90
7143;DHT22;3613;48.902;9.204;2024-02-21T06:06:36;17.60;99.90
7143;DHT22;3613;48.902;9.204;2024-02-21T06:09:02;17.60;99.90
7143;DHT22;3613;48.902;9.204;2024-02-21T06:11:28;17.60;99.90
7143;DHT22;3613;48.902;9.204;2024-02-21T06:13:57;17.60;99.90
7143;DHT22;3613;48.902;9.204;2024-02-21T06:16:22;17.60;99.90
7143;DHT22;3613;48.902;9.204;2024-02-21T06:18:48;17.60;99.90
7143;DHT22;3613;48.902;9.204;2024-02-21T06:21:13;17.60;99.90
7143;DHT22;3613;48.902;9.204;2024-02-21T06:23:39;17.60;99.90
7143;DHT22;3613;48.902;9.204;2024-02-21T06:26:05;17.60;99.90
7143;DHT22;3613;48.902;9.204;2024-02-21T06:28:30;17.60;99.90
7143;DHT22;3613;48.902;9.204;2024-02-21T06:30:58;17.60;99.90
7143;DHT22;3613;48.902;9.204;2024-02-21T06:33:24;17.60;99.90
7143;DHT22;3613;48.902;9.204;2024-02-21T06:35:50;17.60;99.90
7143;DHT22;3613;48.902;9.204;2024-02-21T06:38:18;17.60;99.90
7143;DHT22;3613;48.902;9.204;2024-02-21T06:40:49;17.50;99.90
7143;DHT22;3613;48.902;9.204;2024-02-21T06:43:18;17.60;99.90
7143;DHT22;3613;48.902;9.204;2024-02-21T06:45:44;17.60;99.90
7143;DHT22;3613;48.902;9.204;2024-02-21T06:48:13;17.40;99.90
7143;DHT22;3613;48.902;9.204;2024-02-21T06:50:38;17.40;99.90
7143;DHT22;3613;48.902;9.204;2024-02-21T06:53:04;17.30;99.90
7143;DHT22;3613;48.902;9.204;2024-02-21T06:55:29;17.20;99.90
7143;DHT22;3613;48.902;9.204;2024-02-21T06:57:59;16.50;99.90
7143;DHT22;3613;48.902;9.204;2024-02-21T07:00:25;15.70;99.90
7143;DHT22;3613;48.902;9.204;2024-02-21T07:02:51;15.50;99.90
7143;DHT22;3613;48.902;9.204;2024-02-21T07:05:17;15.80;99.90
7143;DHT22;3613;48.902;9.204;2024-02-21T07:07:45;16.00;99.90
7143;DHT22;3613;48.902;9.204;2024-02-21T07:10:11;16.30;99.90
7143;DHT22;3613;48.902;9.204;2024-02-21T07:12:37;16.50;99.90
7143;DHT22;3613;48.902;9.204;2024-02-21T07:15:07;16.80;99.90
7143;DHT22;3613;48.902;9.204;2024-02-21T07:17:35;17.00;99.90
7143;DHT22;3613;48.902;9.204;2024-02-21T07:20:03;17.20;99.90
7143;DHT22;3613;48.902;9.204;2024-02-21T07:22:29;17.30;99.90
7143;DHT22;3613;48.902;9.204;2024-02-21T07:24:55;17.50;99.90
7143;DHT22;3613;48.902;9.204;2024-02-21T07:27:20;17.70;99.90
7143;DHT22;3613;48.902;9.204;2024-02-21T07:29:49;17.80;99.90
7143;DHT22;3613;48.902;9.204;2024-02-21T07:32:14;17.90;99.90
7143;DHT22;3613;48.902;9.204;2024-02-21T07:34:42;18.10;99.90
7143;DHT22;3613;48.902;9.204;2024-02-21T07:37:08;18.10;99.90
7143;DHT22;3613;48.902;9.204;2024-02-21T07:39:36;18.30;99.90
7143;DHT22;3613;48.902;9.204;2024-02-21T07:42:05;18.30;99.90
7143;DHT22;3613;48.902;9.204;2024-02-21T07:44:34;18.40;99.90
7143;DHT22;3613;48.902;9.204;2024-02-21T07:47:02;18.50;99.90
7143;DHT22;3613;48.902;9.204;2024-02-21T07:49:28;18.50;99.90
7143;DHT22;3613;48.902;9.204;2024-02-21T07:51:56;18.60;99.90
7143;DHT22;3613;48.902;9.204;2024-02-21T07:54:22;18.60;99.90
7143;DHT22;3613;48.902;9.204;2024-02-21T07:56:52;18.70;99.90
7143;DHT22;3613;48.902;9.204;2024-02-21T07:59:20;18.60;99.90
7143;DHT22;3613;48.902;9.204;2024-02-21T08:01:48;18.70;99.90
7143;DHT22;3613;48.902;9.204;2024-02-21T08:04:13;18.70;99.90
7143;DHT22;3613;48.902;9.204;2024-02-21T08:06:42;18.80;99.90
7143;DHT22;3613;48.902;9.204;2024-02-21T08:09:13;18.80;99.90
7143;DHT22;3613;48.902;9.204;2024-02-21T08:11:38;18.80;99.90
7143;DHT22;3613;48.902;9.204;2024-02-21T08:14:04;18.80;99.90
7143;DHT22;3613;48.902;9.204;2024-02-21T08:16:30;18.90;99.90
7143;DHT22;3613;48.902;9.204;2024-02-21T08:18:55;18.90;99.90
7143;DHT22;3613;48.902;9.204;2024-02-21T08:21:21;18.90;99.90
7143;DHT22;3613;48.902;9.204;2024-02-21T08:23:49;18.90;99.90
7143;DHT22;3613;48.902;9.204;2024-02-21T08:26:17;19.00;99.90
7143;DHT22;3613;48.902;9.204;2024-02-21T08:28:42;18.90;99.90
7143;DHT22;3613;48.902;9.204;2024-02-21T08:31:08;19.00;99.90
7143;DHT22;3613;48.902;9.204;2024-02-21T08:33:33;19.00;99.90
7143;DHT22;3613;48.902;9.204;2024-02-21T08:36:01;19.00;99.90
7143;DHT22;3613;48.902;9.204;2024-02-21T08:38:29;19.00;99.90
7143;DHT22;3613;48.902;9.204;2024-02-21T08:40:57;19.00;99.90
7143;DHT22;3613;48.902;9.204;2024-02-21T08:43:25;19.00;99.90
7143;DHT22;3613;48.902;9.204;2024-02-21T08:45:55;19.00;99.90
7143;DHT22;3613;48.902;9.204;2024-02-21T08:48:21;19.00;99.90
7143;DHT22;3613;48.902;9.204;2024-02-21T08:50:46;19.00;99.90
7143;DHT22;3613;48.902;9.204;2024-02-21T08:53:12;19.00;99.90
7143;DHT22;3613;48.902;9.204;2024-02-21T08:55:39;19.00;99.90
7143;DHT22;3613;48.902;9.204;2024-02-21T08:58:05;19.20;99.90
7143;DHT22;3613;48.902;9.204;2024-02-21T09:00:30;19.10;99.90
7143;DHT22;3613;48.902;9.204;2024-02-21T09:02:56;19.10;99.90
7143;DHT22;3613;48.902;9.204;2024-02-21T09:05:22;19.10;99.90
7143;DHT22;3613;48.902;9.204;2024-02-21T09:07:47;19.10;99.90
7143;DHT22;3613;48.902;9.204;2024-02-21T09:10:16;19.10;99.90
7143;DHT22;3613;48.902;9.204;2024-02-21T09:12:41;19.10;99.90
7143;DHT22;3613;48.902;9.204;2024-02-21T09:15:07;19.10;99.90
7143;DHT22;3613;48.902;9.204;2024-02-21T09:17:35;19.10;99.90
7143;DHT22;3613;48.902;9.204;2024-02-21T09:20:02;19.10;99.90
7143;DHT22;3613;48.902;9.204;2024-02-21T09:22:29;19.10;99.90
7143;DHT22;3613;48.902;9.204;2024-02-21T09:25:00;19.10;99.90
7143;DHT22;3613;48.902;9.204;2024-02-21T09:27:26;19.10;99.90
7143;DHT22;3613;48.902;9.204;2024-02-21T09:29:54;19.10;99.90
7143;DHT22;3613;48.902;9.204;2024-02-21T09:32:19;19.10;99.90
7143;DHT22;3613;48.902;9.204;2024-02-21T09:34:45;19.10;99.90
7143;DHT22;3613;48.902;9.204;2024-02-21T09:37:19;19.20;99.90
7143;DHT22;3613;48.902;9.204;2024-02-21T09:39:53;19.20;99.90
7143;DHT22;3613;48.902;9.204;2024-02-21T09:42:21;19.20;99.90
7143;DHT22;3613;48.902;9.204;2024-02-21T09:44:47;19.20;99.90
7143;DHT22;3613;48.902;9.204;2024-02-21T09:47:22;19.20;99.90
7143;DHT22;3613;48.902;9.204;2024-02-21T09:49:50;19.20;99.90
7143;DHT22;3613;48.902;9.204;2024-02-21T09:52:17;19.30;99.90
7143;DHT22;3613;48.902;9.204;2024-02-21T09:54:44;19.30;99.90
7143;DHT22;3613;48.902;9.204;2024-02-21T09:57:13;19.30;99.90
7143;DHT22;3613;48.902;9.204;2024-02-21T09:59:39;19.30;99.90
7143;DHT22;3613;48.902;9.204;2024-02-21T10:02:10;19.30;99.90
7143;DHT22;3613;48.902;9.204;2024-02-21T10:04:37;19.30;99.90
7143;DHT22;3613;48.902;9.204;2024-02-21T10:07:02;19.30;99.90
7143;DHT22;3613;48.902;9.204;2024-02-21T10:09:29;19.40;99.90
7143;DHT22;3613;48.902;9.204;2024-02-21T10:11:55;19.40;99.90
7143;DHT22;3613;48.902;9.204;2024-02-21T10:14:24;19.40;99.90
7143;DHT22;3613;48.902;9.204;2024-02-21T10:16:58;19.40;99.90
7143;DHT22;3613;48.902;9.204;2024-02-21T10:19:28;19.40;99.90
7143;DHT22;3613;48.902;9.204;2024-02-21T10:22:03;19.40;99.90
7143;DHT22;3613;48.902;9.204;2024-02-21T10:24:30;19.40;99.90
7143;DHT22;3613;48.902;9.204;2024-02-21T10:27:06;19.40;99.90
7143;DHT22;3613;48.902;9.204;2024-02-21T10:29:37;19.40;99.90
7143;DHT22;3613;48.902;9.204;2024-02-21T10:32:11;19.40;99.90
7143;DHT22;3613;48.902;9.204;2024-02-21T10:34:38;19.40;99.90
7143;DHT22;3613;48.902;9.204;2024-02-21T10:37:08;19.40;99.90
7143;DHT22;3613;48.902;9.204;2024-02-21T10:39:36;19.40;99.90
7143;DHT22;3613;48.902;9.204;2024-02-21T10:42:03;19.40;99.90
7143;DHT22;3613;48.902;9.204;2024-02-21T10:44:30;19.40;99.90
7143;DHT22;3613;48.902;9.204;2024-02-21T10:46:57;19.40;99.90
7143;DHT22;3613;48.902;9.204;2024-02-21T10:49:24;19.40;99.90
7143;DHT22;3613;48.902;9.204;2024-02-21T10:52:00;19.40;99.90
7143;DHT22;3613;48.902;9.204;2024-02-21T10:57:08;19.40;99.90
7143;DHT22;3613;48.902;9.204;2024-02-21T10:59:39;19.40;99.90
7143;DHT22;3613;48.902;9.204;2024-02-21T11:02:06;19.40;99.90
7143;DHT22;3613;48.902;9.204;2024-02-21T11:04:33;19.40;99.90
7143;DHT22;3613;48.902;9.204;2024-02-21T11:07:05;19.40;99.90
7143;DHT22;3613;48.902;9.204;2024-02-21T11:09:31;19.40;99.90
7143;DHT22;3613;48.902;9.204;2024-02-21T11:12:01;19.40;99.90
7143;DHT22;3613;48.902;9.204;2024-02-21T11:14:28;19.40;99.90
7143;DHT22;3613;48.902;9.204;2024-02-21T11:16:54;19.40;99.90
7143;DHT22;3613;48.902;9.204;2024-02-21T11:19:28;19.50;99.90
7143;DHT22;3613;48.902;9.204;2024-02-21T11:21:58;19.50;99.90
7143;DHT22;3613;48.902;9.204;2024-02-21T11:24:31;19.40;99.90
7143;DHT22;3613;48.902;9.204;2024-02-21T11:27:16;19.50;99.90
7143;DHT22;3613;48.902;9.204;2024-02-21T11:29:45;19.50;99.90
7143;DHT22;3613;48.902;9.204;2024-02-21T11:32:14;19.50;99.90
7143;DHT22;3613;48.902;9.204;2024-02-21T11:35:19;19.50;99.90
7143;DHT22;3613;48.902;9.204;2024-02-21T11:37:44;19.50;99.90
7143;DHT22;3613;48.902;9.204;2024-02-21T11:40:12;19.50;99.90
7143;DHT22;3613;48.902;9.204;2024-02-21T11:42:38;19.50;99.90
7143;DHT22;3613;48.902;9.204;2024-02-21T11:45:04;19.50;99.90
7143;DHT22;3613;48.902;9.204;2024-02-21T11:47:30;19.50;99.90
7143;DHT22;3613;48.902;9.204;2024-02-21T11:49:56;19.50;99.90
7143;DHT22;3613;48.902;9.204;2024-02-21T11:52:22;19.50;99.90
7143;DHT22;3613;48.902;9.204;2024-02-21T11:54:50;19.50;99.90
7143;DHT22;3613;48.902;9.204;2024-02-21T11:57:17;19.50;99.90
7143;DHT22;3613;48.902;9.204;2024-02-21T11:59:45;19.50;99.90
7143;DHT22;3613;48.902;9.204;2024-02-21T12:02:14;19.50;99.90
7143;DHT22;3613;48.902;9.204;2024-02-21T12:04:43;19.50;99.90
7143;DHT22;3613;48.902;9.204;2024-02-21T12:07:12;19.50;99.90
7143;DHT22;3613;48.902;9.204;2024-02-21T12:09:42;19.50;99.90
7143;DHT22;3613;48.902;9.204;2024-02-21T12:12:07;19.50;99.90
7143;DHT22;3613;48.902;9.204;2024-02-21T12:14:36;19.50;99.90
7143;DHT22;3613;48.902;9.204;2024-02-21T12:17:05;19.50;99.90
7143;DHT22;3613;48.902;9.204;2024-02-21T12:19:32;19.50;99.90
7143;DHT22;3613;48.902;9.204;2024-02-21T12:21:59;19.50;99.90
7143;DHT22;3613;48.902;9.204;2024-02-21T12:24:26;19.60;99.90
7143;DHT22;3613;48.902;9.204;2024-02-21T12:26:53;19.60;99.90
7143;DHT22;3613;48.902;9.204;2024-02-21T12:29:24;19.50;99.90
7143;DHT22;3613;48.902;9.204;2024-02-21T12:31:52;19.50;99.90
7143;DHT22;3613;48.902;9.204;2024-02-21T12:34:22;19.50;99.90
7143;DHT22;3613;48.902;9.204;2024-02-21T12:36:54;19.60;99.90
7143;DHT22;3613;48.902;9.204;2024-02-21T12:39:19;19.60;99.90
7143;DHT22;3613;48.902;9.204;2024-02-21T12:41:47;19.60;99.90
7143;DHT22;3613;48.902;9.204;2024-02-21T12:44:14;19.70;99.90
7143;DHT22;3613;48.902;9.204;2024-02-21T12:46:41;19.60;99.90
7143;DHT22;3613;48.902;9.204;2024-02-21T12:49:07;19.60;99.90
7143;DHT22;3613;48.902;9.204;2024-02-21T12:51:33;19.60;99.90
7143;DHT22;3613;48.902;9.204;2024-02-21T12:53:59;19.60;99.90
7143;DHT22;3613;48.902;9.204;2024-02-21T12:56:26;19.60;99.90
7143;DHT22;3613;48.902;9.204;2024-02-21T12:58:52;19.60;99.90
7143;DHT22;3613;48.902;9.204;2024-02-21T13:01:18;19.70;99.90
7143;DHT22;3613;48.902;9.204;2024-02-21T13:03:48;19.60;99.90
7143;DHT22;3613;48.902;9.204;2024-02-21T13:06:14;19.60;99.90
7143;DHT22;3613;48.902;9.204;2024-02-21T13:08:40;19.60;99.90
7143;DHT22;3613;48.902;9.204;2024-02-21T13:11:08;19.60;99.90
7143;DHT22;3613;48.902;9.204;2024-02-21T13:13:36;19.60;99.90
7143;DHT22;3613;48.902;9.204;2024-02-21T13:16:02;19.60;99.90
7143;DHT22;3613;48.902;9.204;2024-02-21T13:18:31;19.60;99.90
7143;DHT22;3613;48.902;9.204;2024-02-21T13:20:58;19.80;99.90
7143;DHT22;3613;48.902;9.204;2024-02-21T13:23:23;20.00;99.90
7143;DHT22;3613;48.902;9.204;2024-02-21T13:25:49;20.10;99.90
7143;DHT22;3613;48.902;9.204;2024-02-21T13:28:16;20.10;99.90
7143;DHT22;3613;48.902;9.204;2024-02-21T13:30:44;20.20;99.90
7143;DHT22;3613;48.902;9.204;2024-02-21T13:33:09;20.20;99.90
7143;DHT22;3613;48.902;9.204;2024-02-21T13:35:35;20.10;99.90
7143;DHT22;3613;48.902;9.204;2024-02-21T13:38:02;20.10;99.90
7143;DHT22;3613;48.902;9.204;2024-02-21T13:40:28;20.10;99.90
7143;DHT22;3613;48.902;9.204;2024-02-21T13:42:57;20.10;99.90
7143;DHT22;3613;48.902;9.204;2024-02-21T13:45:23;20.10;99.90
7143;DHT22;3613;48.902;9.204;2024-02-21T13:47:49;20.10;99.90
7143;DHT22;3613;48.902;9.204;2024-02-21T13:50:14;20.10;99.90
7143;DHT22;3613;48.902;9.204;2024-02-21T13:52:41;20.20;99.90
7143;DHT22;3613;48.902;9.204;2024-02-21T13:55:07;20.10;99.90
7143;DHT22;3613;48.902;9.204;2024-02-21T13:57:37;20.10;99.90
7143;DHT22;3613;48.902;9.204;2024-02-21T14:00:05;20.10;99.90
7143;DHT22;3613;48.902;9.204;2024-02-21T14:02:31;20.10;99.90
7143;DHT22;3613;48.902;9.204;2024-02-21T14:04:57;20.20;99.90
7143;DHT22;3613;48.902;9.204;2024-02-21T14:07:23;20.20;99.90
7143;DHT22;3613;48.902;9.204;2024-02-21T14:09:49;20.20;99.90
7143;DHT22;3613;48.902;9.204;2024-02-21T14:12:17;20.10;99.90
7143;DHT22;3613;48.902;9.204;2024-02-21T14:14:45;20.20;99.90
7143;DHT22;3613;48.902;9.204;2024-02-21T14:17:11;20.20;99.90
7143;DHT22;3613;48.902;9.204;2024-02-21T14:19:37;20.20;99.90
7143;DHT22;3613;48.902;9.204;2024-02-21T14:22:02;20.20;99.90
7143;DHT22;3613;48.902;9.204;2024-02-21T14:24:28;20.20;99.90
7143;DHT22;3613;48.902;9.204;2024-02-21T14:26:54;20.20;99.90
7143;DHT22;3613;48.902;9.204;2024-02-21T14:29:22;20.20;99.90
7143;DHT22;3613;48.902;9.204;2024-02-21T14:31:50;20.20;99.90
7143;DHT22;3613;48.902;9.204;2024-02-21T14:34:16;20.20;99.90
7143;DHT22;3613;48.902;9.204;2024-02-21T14:36:44;20.20;99.90
7143;DHT22;3613;48.902;9.204;2024-02-21T14:39:10;20.20;99.90
7143;DHT22;3613;48.902;9.204;2024-02-21T14:41:38;20.20;99.90
7143;DHT22;3613;48.902;9.204;2024-02-21T14:44:08;20.20;99.90
7143;DHT22;3613;48.902;9.204;2024-02-21T14:46:35;20.20;99.90
7143;DHT22;3613;48.902;9.204;2024-02-21T14:49:01;20.20;99.90
7143;DHT22;3613;48.902;9.204;2024-02-21T14:51:26;20.20;99.90
7143;DHT22;3613;48.902;9.204;2024-02-21T14:53:52;20.20;99.90
7143;DHT22;3613;48.902;9.204;2024-02-21T14:56:18;20.20;99.90
7143;DHT22;3613;48.902;9.204;2024-02-21T14:58:43;20.20;99.90
7143;DHT22;3613;48.902;9.204;2024-02-21T15:01:11;20.20;99.90
7143;DHT22;3613;48.902;9.204;2024-02-21T15:03:38;20.20;99.90
7143;DHT22;3613;48.902;9.204;2024-02-21T15:06:04;20.20;99.90
7143;DHT22;3613;48.902;9.204;2024-02-21T15:08:29;20.10;99.90
7143;DHT22;3613;48.902;9.204;2024-02-21T15:10:55;20.10;99.90
7143;DHT22;3613;48.902;9.204;2024-02-21T15:13:23;20.20;99.90
7143;DHT22;3613;48.902;9.204;2024-02-21T15:15:48;20.10;99.90
7143;DHT22;3613;48.902;9.204;2024-02-21T15:18:15;20.20;99.90
7143;DHT22;3613;48.902;9.204;2024-02-21T15:20:45;20.10;99.90
7143;DHT22;3613;48.902;9.204;2024-02-21T15:23:11;20.10;99.90
7143;DHT22;3613;48.902;9.204;2024-02-21T15:25:36;20.10;99.90
7143;DHT22;3613;48.902;9.204;2024-02-21T15:28:04;20.20;99.90
7143;DHT22;3613;48.902;9.204;2024-02-21T15:30:30;20.10;99.90
7143;DHT22;3613;48.902;9.204;2024-02-21T15:33:01;20.20;99.90
7143;DHT22;3613;48.902;9.204;2024-02-21T15:35:29;20.10;99.90
7143;DHT22;3613;48.902;9.204;2024-02-21T15:37:57;20.10;99.90
7143;DHT22;3613;48.902;9.204;2024-02-21T15:40:23;20.10;99.90
7143;DHT22;3613;48.902;9.204;2024-02-21T15:42:51;20.10;99.90
7143;DHT22;3613;48.902;9.204;2024-02-21T15:45:17;20.10;99.90
7143;DHT22;3613;48.902;9.204;2024-02-21T15:47:45;20.10;99.90
7143;DHT22;3613;48.902;9.204;2024-02-21T15:50:10;20.10;99.90
7143;DHT22;3613;48.902;9.204;2024-02-21T15:52:37;20.10;99.90
7143;DHT22;3613;48.902;9.204;2024-02-21T15:55:04;20.10;99.90
7143;DHT22;3613;48.902;9.204;2024-02-21T15:57:30;20.10;99.90
7143;DHT22;3613;48.902;9.204;2024-02-21T15:59:57;20.10;99.90
7143;DHT22;3613;48.902;9.204;2024-02-21T16:02:23;20.10;99.90
7143;DHT22;3613;48.902;9.204;2024-02-21T16:04:50;20.10;99.90
7143;DHT22;3613;48.902;9.204;2024-02-21T16:07:15;20.10;99.90